sensor_id;sensor_type;location;lat;lon;timestamp;pressure;altitude;pressure_sealevel;temperature;humidity
64551;BME280;50945;44.472;-123.352;2022-07-22T00:00:14;100370.63;;;25.07;51.03
64551;BME280;50945;44.472;-123.352;2022-07-22T00:02:41;100377.88;;;25.03;51.29
64551;BME280;50945;44.472;-123.352;2022-07-22T00:05:08;100372.28;;;25.03;51.00
64551;BME280;50945;44.472;-123.352;2022-07-22T00:07:37;100378.47;;;25.00;51.17
64551;BME280;50945;44.472;-123.352;2022-07-22T00:10:06;100377.06;;;24.97;51.02
64551;BME280;50945;44.472;-123.352;2022-07-22T00:12:33;100370.63;;;24.92;51.35
64551;BME280;50945;44.472;-123.352;2022-07-22T00:14:59;100372.59;;;24.81;51.08
64551;BME280;50945;44.472;-123.352;2022-07-22T00:17:26;100379.59;;;24.78;51.07
64551;BME280;50945;44.472;-123.352;2022-07-22T00:19:52;100371.19;;;24.73;51.13
64551;BME280;50945;44.472;-123.352;2022-07-22T00:22:18;100357.22;;;24.73;51.18
64551;BME280;50945;44.472;-123.352;2022-07-22T00:24:45;100362.81;;;24.73;51.35
64551;BME280;50945;44.472;-123.352;2022-07-22T00:27:11;100361.97;;;24.73;51.36
64551;BME280;50945;44.472;-123.352;2022-07-22T00:29:37;100360.84;;;24.79;51.19
64551;BME280;50945;44.472;-123.352;2022-07-22T00:32:04;100360.28;;;24.87;51.34
64551;BME280;50945;44.472;-123.352;2022-07-22T00:34:30;100356.66;;;24.86;50.97
64551;BME280;50945;44.472;-123.352;2022-07-22T00:36:56;100355.00;;;24.80;50.92
64551;BME280;50945;44.472;-123.352;2022-07-22T00:39:23;100348.53;;;24.75;51.03
64551;BME280;50945;44.472;-123.352;2022-07-22T00:41:50;100347.16;;;24.67;51.26
64551;BME280;50945;44.472;-123.352;2022-07-22T00:44:16;100341.28;;;24.58;51.24
64551;BME280;50945;44.472;-123.352;2022-07-22T00:46:42;100342.38;;;24.47;51.45
64551;BME280;50945;44.472;-123.352;2022-07-22T00:49:09;100342.09;;;24.43;51.70
64551;BME280;50945;44.472;-123.352;2022-07-22T00:51:36;100337.59;;;24.37;51.58
64551;BME280;50945;44.472;-123.352;2022-07-22T00:54:06;100336.19;;;24.29;51.82
64551;BME280;50945;44.472;-123.352;2022-07-22T00:56:33;100337.28;;;24.28;51.72
64551;BME280;50945;44.472;-123.352;2022-07-22T00:59:03;100335.63;;;24.27;51.69
64551;BME280;50945;44.472;-123.352;2022-07-22T01:01:30;100342.63;;;24.20;51.60
64551;BME280;50945;44.472;-123.352;2022-07-22T01:03:57;100337.25;;;24.08;51.78
64551;BME280;50945;44.472;-123.352;2022-07-22T01:06:23;100334.44;;;23.92;51.74
64551;BME280;50945;44.472;-123.352;2022-07-22T01:08:49;100335.72;;;23.75;52.06
64551;BME280;50945;44.472;-123.352;2022-07-22T01:11:18;100334.56;;;23.60;52.21
64551;BME280;50945;44.472;-123.352;2022-07-22T01:13:46;100327.22;;;23.44;52.39
64551;BME280;50945;44.472;-123.352;2022-07-22T01:16:14;100324.94;;;23.35;52.51
64551;BME280;50945;44.472;-123.352;2022-07-22T01:18:41;100321.25;;;23.25;52.72
64551;BME280;50945;44.472;-123.352;2022-07-22T01:21:09;100327.63;;;23.20;52.93
64551;BME280;50945;44.472;-123.352;2022-07-22T01:23:36;100322.88;;;23.15;52.89
64551;BME280;50945;44.472;-123.352;2022-07-22T01:26:04;100320.34;;;23.09;52.99
64551;BME280;50945;44.472;-123.352;2022-07-22T01:28:31;100323.91;;;23.04;53.01
64551;BME280;50945;44.472;-123.352;2022-07-22T01:30:57;100323.59;;;23.01;53.27
64551;BME280;50945;44.472;-123.352;2022-07-22T01:33:24;100321.88;;;22.94;53.01
64551;BME280;50945;44.472;-123.352;2022-07-22T01:35:51;100320.69;;;22.85;53.06
64551;BME280;50945;44.472;-123.352;2022-07-22T01:38:19;100322.00;;;22.77;53.19
64551;BME280;50945;44.472;-123.352;2022-07-22T01:40:46;100331.38;;;22.61;53.34
64551;BME280;50945;44.472;-123.352;2022-07-22T01:43:13;100326.00;;;22.49;53.62
64551;BME280;50945;44.472;-123.352;2022-07-22T01:45:46;100333.66;;;22.37;54.06
64551;BME280;50945;44.472;-123.352;2022-07-22T01:48:14;100331.34;;;22.29;53.98
64551;BME280;50945;44.472;-123.352;2022-07-22T01:50:41;100325.91;;;22.17;53.98
64551;BME280;50945;44.472;-123.352;2022-07-22T01:53:08;100322.50;;;22.10;54.12
64551;BME280;50945;44.472;-123.352;2022-07-22T01:55:34;100324.59;;;21.97;54.32
64551;BME280;50945;44.472;-123.352;2022-07-22T01:58:01;100331.16;;;21.86;54.37
64551;BME280;50945;44.472;-123.352;2022-07-22T02:00:29;100323.25;;;21.78;54.46
64551;BME280;50945;44.472;-123.352;2022-07-22T02:02:56;100330.13;;;21.70;54.87
64551;BME280;50945;44.472;-123.352;2022-07-22T02:05:22;100332.25;;;21.63;55.02
64551;BME280;50945;44.472;-123.352;2022-07-22T02:07:48;100329.91;;;21.55;54.94
64551;BME280;50945;44.472;-123.352;2022-07-22T02:10:14;100335.09;;;21.46;55.58
64551;BME280;50945;44.472;-123.352;2022-07-22T02:12:40;100336.94;;;21.40;54.88
64551;BME280;50945;44.472;-123.352;2022-07-22T02:15:06;100337.13;;;21.34;55.75
64551;BME280;50945;44.472;-123.352;2022-07-22T02:17:35;100344.53;;;21.28;55.22
64551;BME280;50945;44.472;-123.352;2022-07-22T02:20:02;100346.91;;;21.19;55.50
64551;BME280;50945;44.472;-123.352;2022-07-22T02:22:29;100339.34;;;21.15;55.27
64551;BME280;50945;44.472;-123.352;2022-07-22T02:24:55;100347.28;;;21.06;55.42
64551;BME280;50945;44.472;-123.352;2022-07-22T02:27:21;100346.94;;;21.02;55.36
64551;BME280;50945;44.472;-123.352;2022-07-22T02:29:47;100353.88;;;20.83;56.76
64551;BME280;50945;44.472;-123.352;2022-07-22T02:32:14;100346.28;;;20.78;55.84
64551;BME280;50945;44.472;-123.352;2022-07-22T02:34:39;100354.47;;;20.68;56.62
64551;BME280;50945;44.472;-123.352;2022-07-22T02:37:06;100352.06;;;20.60;55.71
64551;BME280;50945;44.472;-123.352;2022-07-22T02:39:32;100360.13;;;20.44;57.01
64551;BME280;50945;44.472;-123.352;2022-07-22T02:41:58;100369.47;;;20.38;56.11
64551;BME280;50945;44.472;-123.352;2022-07-22T02:44:24;100363.84;;;20.21;57.38
64551;BME280;50945;44.472;-123.352;2022-07-22T02:46:50;100377.03;;;20.14;56.23
64551;BME280;50945;44.472;-123.352;2022-07-22T02:49:16;100368.03;;;20.07;56.28
64551;BME280;50945;44.472;-123.352;2022-07-22T02:51:43;100366.50;;;19.99;56.45
64551;BME280;50945;44.472;-123.352;2022-07-22T02:54:09;100367.63;;;19.86;56.65
64551;BME280;50945;44.472;-123.352;2022-07-22T02:56:35;100372.97;;;19.76;56.82
64551;BME280;50945;44.472;-123.352;2022-07-22T02:59:01;100379.25;;;19.60;58.19
64551;BME280;50945;44.472;-123.352;2022-07-22T03:01:28;100373.81;;;19.53;57.09
64551;BME280;50945;44.472;-123.352;2022-07-22T03:03:54;100376.47;;;19.36;58.43
64551;BME280;50945;44.472;-123.352;2022-07-22T03:06:21;100382.53;;;19.21;57.39
64551;BME280;50945;44.472;-123.352;2022-07-22T03:08:46;100381.69;;;19.09;58.60
64551;BME280;50945;44.472;-123.352;2022-07-22T03:11:13;100384.56;;;18.90;57.75
64551;BME280;50945;44.472;-123.352;2022-07-22T03:13:40;100384.97;;;18.75;58.45
64551;BME280;50945;44.472;-123.352;2022-07-22T03:16:06;100389.16;;;18.54;60.20
64551;BME280;50945;44.472;-123.352;2022-07-22T03:18:34;100384.06;;;18.39;58.41
64551;BME280;50945;44.472;-123.352;2022-07-22T03:21:00;100395.31;;;18.26;58.68
64551;BME280;50945;44.472;-123.352;2022-07-22T03:23:27;100398.66;;;18.16;58.86
64551;BME280;50945;44.472;-123.352;2022-07-22T03:25:55;100400.75;;;18.02;59.12
64551;BME280;50945;44.472;-123.352;2022-07-22T03:28:22;100399.28;;;17.81;59.59
64551;BME280;50945;44.472;-123.352;2022-07-22T03:30:49;100395.13;;;17.72;60.08
64551;BME280;50945;44.472;-123.352;2022-07-22T03:33:15;100404.28;;;17.54;60.32
64551;BME280;50945;44.472;-123.352;2022-07-22T03:35:41;100412.47;;;17.42;60.17
64551;BME280;50945;44.472;-123.352;2022-07-22T03:38:08;100410.91;;;17.28;60.37
64551;BME280;50945;44.472;-123.352;2022-07-22T03:40:34;100413.81;;;17.15;60.62
64551;BME280;50945;44.472;-123.352;2022-07-22T03:43:00;100416.03;;;17.06;60.96
64551;BME280;50945;44.472;-123.352;2022-07-22T03:45:27;100414.38;;;16.98;61.39
64551;BME280;50945;44.472;-123.352;2022-07-22T03:47:53;100415.97;;;16.87;61.29
64551;BME280;50945;44.472;-123.352;2022-07-22T03:50:20;100414.06;;;16.81;61.13
64551;BME280;50945;44.472;-123.352;2022-07-22T03:52:47;100419.03;;;16.72;61.56
64551;BME280;50945;44.472;-123.352;2022-07-22T03:55:13;100428.03;;;16.61;61.53
64551;BME280;50945;44.472;-123.352;2022-07-22T03:57:42;100430.84;;;16.54;61.84
64551;BME280;50945;44.472;-123.352;2022-07-22T04:00:10;100427.72;;;16.44;62.36
64551;BME280;50945;44.472;-123.352;2022-07-22T04:02:37;100427.75;;;16.38;62.18
64551;BME280;50945;44.472;-123.352;2022-07-22T04:05:03;100433.56;;;16.23;65.59
64551;BME280;50945;44.472;-123.352;2022-07-22T04:07:30;100428.91;;;16.16;62.24
64551;BME280;50945;44.472;-123.352;2022-07-22T04:09:56;100435.72;;;16.14;62.79
64551;BME280;50945;44.472;-123.352;2022-07-22T04:12:38;100434.50;;;16.03;64.75
64551;BME280;50945;44.472;-123.352;2022-07-22T04:15:06;100438.31;;;16.02;63.57
64551;BME280;50945;44.472;-123.352;2022-07-22T04:17:33;100437.91;;;15.99;63.15
64551;BME280;50945;44.472;-123.352;2022-07-22T04:19:59;100443.00;;;15.95;63.65
64551;BME280;50945;44.472;-123.352;2022-07-22T04:22:29;100444.31;;;15.92;63.20
64551;BME280;50945;44.472;-123.352;2022-07-22T04:24:56;100458.50;;;15.89;63.40
64551;BME280;50945;44.472;-123.352;2022-07-22T04:27:22;100467.88;;;15.82;65.61
64551;BME280;50945;44.472;-123.352;2022-07-22T04:29:49;100461.94;;;15.78;63.78
64551;BME280;50945;44.472;-123.352;2022-07-22T04:32:16;100476.16;;;15.75;68.08
64551;BME280;50945;44.472;-123.352;2022-07-22T04:34:42;100478.06;;;15.74;64.21
64551;BME280;50945;44.472;-123.352;2022-07-22T04:37:09;100481.47;;;15.76;64.84
64551;BME280;50945;44.472;-123.352;2022-07-22T04:39:35;100475.09;;;15.76;64.72
64551;BME280;50945;44.472;-123.352;2022-07-22T04:42:01;100483.16;;;15.77;64.71
64551;BME280;50945;44.472;-123.352;2022-07-22T04:44:28;100481.25;;;15.78;64.47
64551;BME280;50945;44.472;-123.352;2022-07-22T04:46:54;100485.25;;;15.75;65.19
64551;BME280;50945;44.472;-123.352;2022-07-22T04:49:20;100485.06;;;15.77;64.71
64551;BME280;50945;44.472;-123.352;2022-07-22T04:51:47;100495.03;;;15.78;65.09
64551;BME280;50945;44.472;-123.352;2022-07-22T04:54:13;100501.97;;;15.74;65.18
64551;BME280;50945;44.472;-123.352;2022-07-22T04:56:41;100499.47;;;15.72;65.00
64551;BME280;50945;44.472;-123.352;2022-07-22T04:59:07;100497.75;;;15.71;64.97
64551;BME280;50945;44.472;-123.352;2022-07-22T05:01:33;100506.66;;;15.67;64.96
64551;BME280;50945;44.472;-123.352;2022-07-22T05:04:00;100504.56;;;15.62;64.75
64551;BME280;50945;44.472;-123.352;2022-07-22T05:06:26;100509.03;;;15.56;65.29
64551;BME280;50945;44.472;-123.352;2022-07-22T05:08:52;100517.50;;;15.48;65.09
64551;BME280;50945;44.472;-123.352;2022-07-22T05:11:19;100512.63;;;15.44;65.04
64551;BME280;50945;44.472;-123.352;2022-07-22T05:13:48;100513.69;;;15.36;65.05
64551;BME280;50945;44.472;-123.352;2022-07-22T05:16:14;100499.91;;;15.29;65.70
64551;BME280;50945;44.472;-123.352;2022-07-22T05:18:41;100514.97;;;15.20;66.24
64551;BME280;50945;44.472;-123.352;2022-07-22T05:21:07;100516.47;;;15.16;65.92
64551;BME280;50945;44.472;-123.352;2022-07-22T05:23:33;100516.66;;;15.14;68.21
64551;BME280;50945;44.472;-123.352;2022-07-22T05:26:00;100520.69;;;15.12;66.09
64551;BME280;50945;44.472;-123.352;2022-07-22T05:28:26;100520.25;;;15.08;66.32
64551;BME280;50945;44.472;-123.352;2022-07-22T05:30:53;100521.53;;;15.06;66.56
64551;BME280;50945;44.472;-123.352;2022-07-22T05:33:19;100524.28;;;15.06;65.92
64551;BME280;50945;44.472;-123.352;2022-07-22T05:35:45;100529.34;;;15.02;66.46
64551;BME280;50945;44.472;-123.352;2022-07-22T05:38:12;100535.06;;;15.00;66.21
64551;BME280;50945;44.472;-123.352;2022-07-22T05:40:38;100536.13;;;14.99;66.36
64551;BME280;50945;44.472;-123.352;2022-07-22T05:43:04;100538.03;;;14.99;66.92
64551;BME280;50945;44.472;-123.352;2022-07-22T05:45:31;100539.94;;;14.98;66.53
64551;BME280;50945;44.472;-123.352;2022-07-22T05:47:57;100543.09;;;14.95;66.31
64551;BME280;50945;44.472;-123.352;2022-07-22T05:50:24;100542.25;;;14.95;65.90
64551;BME280;50945;44.472;-123.352;2022-07-22T05:52:50;100546.91;;;14.88;66.45
64551;BME280;50945;44.472;-123.352;2022-07-22T05:55:16;100551.97;;;14.84;66.95
64551;BME280;50945;44.472;-123.352;2022-07-22T05:57:43;100553.22;;;14.81;66.63
64551;BME280;50945;44.472;-123.352;2022-07-22T06:00:10;100556.81;;;14.75;66.97
64551;BME280;50945;44.472;-123.352;2022-07-22T06:02:36;100557.22;;;14.72;66.64
64551;BME280;50945;44.472;-123.352;2022-07-22T06:05:03;100565.06;;;14.69;67.03
64551;BME280;50945;44.472;-123.352;2022-07-22T06:07:29;100555.72;;;14.63;67.14
64551;BME280;50945;44.472;-123.352;2022-07-22T06:09:56;100558.47;;;14.63;67.60
64551;BME280;50945;44.472;-123.352;2022-07-22T06:12:22;100565.03;;;14.62;66.95
64551;BME280;50945;44.472;-123.352;2022-07-22T06:14:48;100572.63;;;14.60;67.91
64551;BME280;50945;44.472;-123.352;2022-07-22T06:17:14;100578.53;;;14.57;67.18
64551;BME280;50945;44.472;-123.352;2022-07-22T06:19:41;100582.53;;;14.54;67.31
64551;BME280;50945;44.472;-123.352;2022-07-22T06:22:07;100576.19;;;14.54;67.57
64551;BME280;50945;44.472;-123.352;2022-07-22T06:24:33;100585.28;;;14.54;67.04
64551;BME280;50945;44.472;-123.352;2022-07-22T06:27:00;100579.59;;;14.56;67.22
64551;BME280;50945;44.472;-123.352;2022-07-22T06:29:26;100587.84;;;14.56;67.02
64551;BME280;50945;44.472;-123.352;2022-07-22T06:31:52;100589.94;;;14.54;67.19
64551;BME280;50945;44.472;-123.352;2022-07-22T06:34:19;100581.91;;;14.52;67.03
64551;BME280;50945;44.472;-123.352;2022-07-22T06:36:45;100585.06;;;14.49;67.58
64551;BME280;50945;44.472;-123.352;2022-07-22T06:39:11;100594.16;;;14.50;66.93
64551;BME280;50945;44.472;-123.352;2022-07-22T06:41:38;100596.25;;;14.48;67.45
64551;BME280;50945;44.472;-123.352;2022-07-22T06:44:04;100592.03;;;14.45;67.56
64551;BME280;50945;44.472;-123.352;2022-07-22T06:46:30;100595.81;;;14.44;67.53
64551;BME280;50945;44.472;-123.352;2022-07-22T06:48:57;100591.59;;;14.41;67.19
64551;BME280;50945;44.472;-123.352;2022-07-22T06:51:23;100593.69;;;14.39;67.37
64551;BME280;50945;44.472;-123.352;2022-07-22T06:53:49;100595.81;;;14.37;67.51
64551;BME280;50945;44.472;-123.352;2022-07-22T06:56:16;100596.00;;;14.36;67.63
64551;BME280;50945;44.472;-123.352;2022-07-22T06:58:42;100600.00;;;14.33;67.71
64551;BME280;50945;44.472;-123.352;2022-07-22T07:01:08;100596.59;;;14.31;67.88
64551;BME280;50945;44.472;-123.352;2022-07-22T07:03:35;100613.09;;;14.31;68.04
64551;BME280;50945;44.472;-123.352;2022-07-22T07:06:01;100611.41;;;14.30;67.97
64551;BME280;50945;44.472;-123.352;2022-07-22T07:08:28;100617.13;;;14.29;67.90
64551;BME280;50945;44.472;-123.352;2022-07-22T07:10:55;100611.63;;;14.29;67.90
64551;BME280;50945;44.472;-123.352;2022-07-22T07:13:21;100609.91;;;14.27;68.15
64551;BME280;50945;44.472;-123.352;2022-07-22T07:15:47;100619.44;;;14.25;68.41
64551;BME280;50945;44.472;-123.352;2022-07-22T07:18:13;100618.56;;;14.24;68.29
64551;BME280;50945;44.472;-123.352;2022-07-22T07:20:40;100614.13;;;14.23;68.22
64551;BME280;50945;44.472;-123.352;2022-07-22T07:23:06;100618.56;;;14.24;68.39
64551;BME280;50945;44.472;-123.352;2022-07-22T07:25:33;100611.81;;;14.27;68.55
64551;BME280;50945;44.472;-123.352;2022-07-22T07:27:59;100620.06;;;14.27;68.53
64551;BME280;50945;44.472;-123.352;2022-07-22T07:30:26;100620.91;;;14.27;68.60
64551;BME280;50945;44.472;-123.352;2022-07-22T07:32:52;100630.00;;;14.28;68.69
64551;BME280;50945;44.472;-123.352;2022-07-22T07:35:18;100630.88;;;14.29;68.44
64551;BME280;50945;44.472;-123.352;2022-07-22T07:37:45;100623.47;;;14.29;68.42
64551;BME280;50945;44.472;-123.352;2022-07-22T07:40:12;100634.25;;;14.31;68.46
64551;BME280;50945;44.472;-123.352;2022-07-22T07:42:38;100628.97;;;14.29;68.40
64551;BME280;50945;44.472;-123.352;2022-07-22T07:45:05;100629.81;;;14.30;68.68
64551;BME280;50945;44.472;-123.352;2022-07-22T07:47:31;100635.50;;;14.28;68.40
64551;BME280;50945;44.472;-123.352;2022-07-22T07:49:57;100630.44;;;14.25;68.49
64551;BME280;50945;44.472;-123.352;2022-07-22T07:52:26;100633.78;;;14.20;68.78
64551;BME280;50945;44.472;-123.352;2022-07-22T07:54:52;100640.94;;;14.15;68.89
64551;BME280;50945;44.472;-123.352;2022-07-22T07:57:21;100641.94;;;14.07;68.87
64551;BME280;50945;44.472;-123.352;2022-07-22T07:59:48;100646.31;;;14.01;69.16
64551;BME280;50945;44.472;-123.352;2022-07-22T08:02:14;100639.94;;;13.94;69.30
64551;BME280;50945;44.472;-123.352;2022-07-22T08:04:41;100644.53;;;13.87;69.49
64551;BME280;50945;44.472;-123.352;2022-07-22T08:07:08;100649.13;;;13.80;69.88
64551;BME280;50945;44.472;-123.352;2022-07-22T08:09:34;100649.72;;;13.75;69.78
64551;BME280;50945;44.472;-123.352;2022-07-22T08:12:04;100658.38;;;13.72;69.84
64551;BME280;50945;44.472;-123.352;2022-07-22T08:14:31;100657.72;;;13.70;69.87
64551;BME280;50945;44.472;-123.352;2022-07-22T08:16:57;100655.34;;;13.67;70.08
64551;BME280;50945;44.472;-123.352;2022-07-22T08:19:23;100658.28;;;13.65;69.99
64551;BME280;50945;44.472;-123.352;2022-07-22T08:21:50;100650.44;;;13.62;70.10
64551;BME280;50945;44.472;-123.352;2022-07-22T08:24:16;100661.84;;;13.59;70.48
64551;BME280;50945;44.472;-123.352;2022-07-22T08:26:42;100653.16;;;13.56;70.37
64551;BME280;50945;44.472;-123.352;2022-07-22T08:29:09;100665.56;;;13.52;70.63
64551;BME280;50945;44.472;-123.352;2022-07-22T08:31:37;100667.00;;;13.47;70.74
64551;BME280;50945;44.472;-123.352;2022-07-22T08:34:04;100664.84;;;13.43;70.87
64551;BME280;50945;44.472;-123.352;2022-07-22T08:36:31;100654.28;;;13.40;70.61
64551;BME280;50945;44.472;-123.352;2022-07-22T08:38:57;100668.75;;;13.34;75.28
64551;BME280;50945;44.472;-123.352;2022-07-22T08:41:23;100673.13;;;13.28;75.33
64551;BME280;50945;44.472;-123.352;2022-07-22T08:43:50;100665.44;;;13.23;70.64
64551;BME280;50945;44.472;-123.352;2022-07-22T08:46:17;100663.31;;;13.19;71.03
64551;BME280;50945;44.472;-123.352;2022-07-22T08:48:44;100670.03;;;13.16;71.14
64551;BME280;50945;44.472;-123.352;2022-07-22T08:51:11;100671.09;;;13.15;71.22
64551;BME280;50945;44.472;-123.352;2022-07-22T08:53:37;100668.34;;;13.15;71.32
64551;BME280;50945;44.472;-123.352;2022-07-22T08:56:04;100671.28;;;13.13;71.25
64551;BME280;50945;44.472;-123.352;2022-07-22T08:58:30;100666.63;;;13.14;71.57
64551;BME280;50945;44.472;-123.352;2022-07-22T09:01:15;100674.66;;;13.16;72.09
64551;BME280;50945;44.472;-123.352;2022-07-22T09:03:50;100664.75;;;13.15;72.30
64551;BME280;50945;44.472;-123.352;2022-07-22T09:06:18;100677.22;;;13.17;72.01
64551;BME280;50945;44.472;-123.352;2022-07-22T09:08:56;100675.13;;;13.19;72.39
64551;BME280;50945;44.472;-123.352;2022-07-22T09:11:24;100667.53;;;13.21;71.60
64551;BME280;50945;44.472;-123.352;2022-07-22T09:13:52;100666.78;;;13.27;71.79
64551;BME280;50945;44.472;-123.352;2022-07-22T09:16:42;100676.16;;;13.33;74.04
64551;BME280;50945;44.472;-123.352;2022-07-22T09:19:09;100668.19;;;13.38;71.69
64551;BME280;50945;44.472;-123.352;2022-07-22T09:21:36;100676.03;;;13.41;77.41
64551;BME280;50945;44.472;-123.352;2022-07-22T09:24:04;100673.75;;;13.45;71.90
64551;BME280;50945;44.472;-123.352;2022-07-22T09:26:36;100668.72;;;13.48;71.76
64551;BME280;50945;44.472;-123.352;2022-07-22T09:29:04;100673.78;;;13.52;71.87
64551;BME280;50945;44.472;-123.352;2022-07-22T09:31:33;100672.56;;;13.54;71.75
64551;BME280;50945;44.472;-123.352;2022-07-22T09:34:00;100679.75;;;13.55;71.46
64551;BME280;50945;44.472;-123.352;2022-07-22T09:36:27;100683.75;;;13.53;71.69
64551;BME280;50945;44.472;-123.352;2022-07-22T09:38:54;100681.19;;;13.51;71.49
64551;BME280;50945;44.472;-123.352;2022-07-22T09:41:21;100680.75;;;13.47;71.59
64551;BME280;50945;44.472;-123.352;2022-07-22T09:43:47;100681.13;;;13.44;71.72
64551;BME280;50945;44.472;-123.352;2022-07-22T09:46:15;100685.13;;;13.42;71.23
64551;BME280;50945;44.472;-123.352;2022-07-22T09:48:42;100687.41;;;13.38;71.78
64551;BME280;50945;44.472;-123.352;2022-07-22T09:51:09;100686.94;;;13.35;71.88
64551;BME280;50945;44.472;-123.352;2022-07-22T09:53:35;100679.44;;;13.28;72.13
64551;BME280;50945;44.472;-123.352;2022-07-22T09:56:04;100683.44;;;13.26;72.04
64551;BME280;50945;44.472;-123.352;2022-07-22T09:58:31;100681.91;;;13.23;72.12
64551;BME280;50945;44.472;-123.352;2022-07-22T10:01:04;100686.38;;;13.24;72.44
64551;BME280;50945;44.472;-123.352;2022-07-22T10:03:35;100690.38;;;13.22;72.26
64551;BME280;50945;44.472;-123.352;2022-07-22T10:06:04;100681.47;;;13.20;72.31
64551;BME280;50945;44.472;-123.352;2022-07-22T10:08:32;100681.47;;;13.20;72.58
64551;BME280;50945;44.472;-123.352;2022-07-22T10:11:05;100680.81;;;13.18;72.80
64551;BME280;50945;44.472;-123.352;2022-07-22T10:13:32;100685.44;;;13.17;72.58
64551;BME280;50945;44.472;-123.352;2022-07-22T10:16:00;100688.56;;;13.14;72.60
64551;BME280;50945;44.472;-123.352;2022-07-22T10:18:27;100693.59;;;13.10;72.16
64551;BME280;50945;44.472;-123.352;2022-07-22T10:21:04;100694.66;;;13.09;72.51
64551;BME280;50945;44.472;-123.352;2022-07-22T10:23:30;100691.25;;;13.07;72.38
64551;BME280;50945;44.472;-123.352;2022-07-22T10:25:59;100698.44;;;13.08;72.67
64551;BME280;50945;44.472;-123.352;2022-07-22T10:30:52;100697.47;;;13.16;72.67
64551;BME280;50945;44.472;-123.352;2022-07-22T10:33:20;100700.03;;;13.18;72.91
64551;BME280;50945;44.472;-123.352;2022-07-22T10:36:02;100701.75;;;13.19;73.16
64551;BME280;50945;44.472;-123.352;2022-07-22T10:38:30;100709.78;;;13.20;72.46
64551;BME280;50945;44.472;-123.352;2022-07-22T10:40:58;100702.38;;;13.21;72.16
64551;BME280;50945;44.472;-123.352;2022-07-22T10:43:45;100706.16;;;13.20;72.42
64551;BME280;50945;44.472;-123.352;2022-07-22T10:46:12;100709.13;;;13.18;72.04
64551;BME280;50945;44.472;-123.352;2022-07-22T10:56:34;100705.69;;;13.16;73.53
64551;BME280;50945;44.472;-123.352;2022-07-22T11:01:35;100707.88;;;13.21;72.62
64551;BME280;50945;44.472;-123.352;2022-07-22T11:04:17;100703.50;;;13.26;73.41
64551;BME280;50945;44.472;-123.352;2022-07-22T11:06:45;100700.69;;;13.35;72.82
64551;BME280;50945;44.472;-123.352;2022-07-22T11:09:13;100709.84;;;13.42;72.90
64551;BME280;50945;44.472;-123.352;2022-07-22T11:11:45;100712.66;;;13.48;72.70
64551;BME280;50945;44.472;-123.352;2022-07-22T11:16:44;100710.16;;;13.54;72.82
64551;BME280;50945;44.472;-123.352;2022-07-22T11:19:11;100715.00;;;13.52;72.65
64551;BME280;50945;44.472;-123.352;2022-07-22T11:21:37;100716.72;;;13.53;72.34
64551;BME280;50945;44.472;-123.352;2022-07-22T11:24:06;100712.06;;;13.53;72.44
64551;BME280;50945;44.472;-123.352;2022-07-22T11:26:49;100714.81;;;13.53;72.86
64551;BME280;50945;44.472;-123.352;2022-07-22T11:31:44;100710.41;;;13.59;72.55
64551;BME280;50945;44.472;-123.352;2022-07-22T11:34:12;100711.75;;;13.63;72.31
64551;BME280;50945;44.472;-123.352;2022-07-22T11:36:42;100714.31;;;13.64;72.66
64551;BME280;50945;44.472;-123.352;2022-07-22T11:39:10;100715.78;;;13.67;72.54
64551;BME280;50945;44.472;-123.352;2022-07-22T11:41:37;100708.00;;;13.71;72.71
64551;BME280;50945;44.472;-123.352;2022-07-22T11:44:04;100718.41;;;13.75;72.53
64551;BME280;50945;44.472;-123.352;2022-07-22T11:46:37;100720.94;;;13.77;77.23
64551;BME280;50945;44.472;-123.352;2022-07-22T11:49:04;100724.38;;;13.79;72.81
64551;BME280;50945;44.472;-123.352;2022-07-22T11:51:32;100718.47;;;13.82;72.26
64551;BME280;50945;44.472;-123.352;2022-07-22T11:54:00;100722.06;;;13.82;72.75
64551;BME280;50945;44.472;-123.352;2022-07-22T11:56:26;100723.94;;;13.82;72.68
64551;BME280;50945;44.472;-123.352;2022-07-22T11:58:54;100718.47;;;13.82;72.85
64551;BME280;50945;44.472;-123.352;2022-07-22T12:01:26;100726.50;;;13.83;72.96
64551;BME280;50945;44.472;-123.352;2022-07-22T12:03:56;100726.31;;;13.85;73.21
64551;BME280;50945;44.472;-123.352;2022-07-22T12:06:24;100722.78;;;13.91;72.83
64551;BME280;50945;44.472;-123.352;2022-07-22T12:09:08;100727.03;;;13.94;73.73
64551;BME280;50945;44.472;-123.352;2022-07-22T12:11:42;100730.63;;;13.94;72.77
64551;BME280;50945;44.472;-123.352;2022-07-22T12:14:14;100728.75;;;13.95;72.66
64551;BME280;50945;44.472;-123.352;2022-07-22T12:16:42;100731.25;;;13.96;73.04
64551;BME280;50945;44.472;-123.352;2022-07-22T12:19:13;100728.75;;;13.95;72.87
64551;BME280;50945;44.472;-123.352;2022-07-22T12:22:05;100731.50;;;13.95;74.20
64551;BME280;50945;44.472;-123.352;2022-07-22T12:24:33;100740.13;;;13.92;72.62
64551;BME280;50945;44.472;-123.352;2022-07-22T12:27:05;100742.22;;;13.90;72.96
64551;BME280;50945;44.472;-123.352;2022-07-22T12:32:09;100744.72;;;13.84;73.03
64551;BME280;50945;44.472;-123.352;2022-07-22T12:37:34;100748.69;;;13.82;74.28
64551;BME280;50945;44.472;-123.352;2022-07-22T12:42:45;100748.63;;;13.75;73.21
64551;BME280;50945;44.472;-123.352;2022-07-22T12:45:16;100746.53;;;13.77;73.38
64551;BME280;50945;44.472;-123.352;2022-07-22T12:47:56;100753.53;;;13.80;73.14